Time;durP1;ratioP1;P1;durP2;ratioP2;P2;SDS_P1;SDS_P2;PMS_P1;PMS_P2;Temp;Humidity;BMP_temperature;BMP_pressure;BME280_temperature;BME280_humidity;BME280_pressure;Samples;Min_cycle;Max_cycle;Signal;HPM_P1;HPM_P2
2023/07/20 00:00:53;;;;;;;0.20;0.20;;;;;;;18.51;71.66;101573.59;5076418;28;20031;-80
2023/07/20 00:03:22;;;;;;;0.10;0.10;;;;;;;18.53;71.37;101573.50;5079558;28;20021;-82
2023/07/20 00:05:49;;;;;;;0.00;0.00;;;;;;;18.51;72.02;101570.91;5075824;28;20464;-82
2023/07/20 00:08:17;;;;;;;0.00;0.00;;;;;;;18.52;71.62;101566.41;5073380;28;20027;-82
2023/07/20 00:10:43;;;;;;;0.10;0.10;;;;;;;18.50;71.78;101561.09;5074980;28;20070;-81
2023/07/20 00:13:10;;;;;;;0.00;0.00;;;;;;;18.49;71.50;101559.38;5079169;28;20025;-83
2023/07/20 00:15:37;;;;;;;0.00;0.00;;;;;;;18.48;71.20;101559.41;5075256;28;20043;-82
2023/07/20 00:18:04;;;;;;;0.10;0.10;;;;;;;18.45;71.22;101567.59;5078889;28;20024;-83
2023/07/20 00:20:31;;;;;;;0.10;0.10;;;;;;;18.36;72.42;101567.03;5086545;28;20036;-83
2023/07/20 00:22:58;;;;;;;0.30;0.30;;;;;;;18.31;71.57;101571.72;5081957;28;20036;-83
2023/07/20 00:25:24;;;;;;;0.15;0.15;;;;;;;18.26;71.58;101566.53;5086728;28;20137;-85
2023/07/20 00:27:51;;;;;;;0.10;0.10;;;;;;;18.23;71.19;101565.78;5097366;28;20035;-82
2023/07/20 00:30:18;;;;;;;0.10;0.10;;;;;;;18.24;71.19;101572.91;5100424;28;20024;-83
2023/07/20 00:32:44;;;;;;;0.80;0.80;;;;;;;18.24;71.28;101575.59;5097436;28;20096;-81
2023/07/20 00:35:11;;;;;;;0.15;0.15;;;;;;;18.19;71.86;101567.72;5099724;28;20032;-82
2023/07/20 00:37:38;;;;;;;0.00;0.00;;;;;;;18.13;71.77;101562.63;5093970;28;20095;-83
2023/07/20 00:40:07;;;;;;;0.05;0.05;;;;;;;18.10;71.72;101563.59;5096903;28;20020;-81
2023/07/20 00:42:33;;;;;;;0.55;0.55;;;;;;;18.07;71.29;101568.25;5093448;28;20516;-81
2023/07/20 00:45:00;;;;;;;0.00;0.00;;;;;;;18.04;71.24;101569.22;5100422;28;20310;-81
2023/07/20 00:47:27;;;;;;;1.45;0.52;;;;;;;17.99;71.65;101571.19;5099205;28;20032;-81
2023/07/20 00:49:54;;;;;;;0.10;0.10;;;;;;;17.99;71.13;101576.56;5094707;28;20025;-82
2023/07/20 00:52:23;;;;;;;0.00;0.00;;;;;;;17.90;72.24;101567.03;5088263;28;20060;-82
2023/07/20 00:54:49;;;;;;;0.00;0.00;;;;;;;17.87;72.16;101568.97;5089566;28;20024;-82
2023/07/20 00:57:17;;;;;;;0.00;0.00;;;;;;;17.82;72.15;101569.19;5103333;28;20087;-82
2023/07/20 00:59:43;;;;;;;0.00;0.00;;;;;;;17.79;71.96;101570.16;5092710;28;20086;-81
2023/07/20 01:02:10;;;;;;;0.00;0.00;;;;;;;17.76;71.68;101574.78;5099056;28;20028;-82
2023/07/20 01:04:37;;;;;;;0.10;0.10;;;;;;;17.72;71.82;101568.66;5101941;28;20040;-81
2023/07/20 01:09:52;;;;;;;0.10;0.10;;;;;;;17.71;71.86;101576.75;5082459;28;20056;-82
2023/07/20 01:12:27;;;;;;;0.03;0.03;;;;;;;17.69;72.14;101574.13;5067949;28;20033;-83
2023/07/20 01:14:54;;;;;;;0.10;0.10;;;;;;;17.64;71.93;101570.75;5068051;28;20025;-80
2023/07/20 01:17:20;;;;;;;0.00;0.00;;;;;;;17.62;71.47;101575.31;5069376;28;20036;-82
2023/07/20 01:19:46;;;;;;;0.00;0.00;;;;;;;17.57;71.85;101569.22;5068753;28;20060;-82
2023/07/20 01:33:17;;;;;;;0.08;0.08;;;;;;;17.40;71.80;101578.75;5171042;27;20904;-84
2023/07/20 01:35:46;;;;;;;0.05;0.05;;;;;;;17.36;72.22;101589.66;5141718;27;20370;-84
2023/07/20 01:38:20;;;;;;;0.10;0.10;;;;;;;17.40;71.76;101578.75;5134306;27;20035;-84
2023/07/20 01:40:46;;;;;;;0.10;0.10;;;;;;;17.36;72.06;101586.97;5132032;27;20541;-85
2023/07/20 01:43:13;;;;;;;0.00;0.00;;;;;;;17.34;71.57;101584.34;5135684;27;20027;-84
2023/07/20 01:45:39;;;;;;;0.00;0.00;;;;;;;17.33;72.13;101587.94;5139896;27;20044;-83
2023/07/20 01:48:05;;;;;;;0.00;0.00;;;;;;;17.33;72.39;101587.94;5155658;27;20031;-82
2023/07/20 01:50:32;;;;;;;0.10;0.10;;;;;;;17.32;71.93;101585.34;5143647;27;20019;-82
2023/07/20 01:52:58;;;;;;;0.10;0.10;;;;;;;17.30;72.20;101594.28;5126201;27;20093;-81
2023/07/20 01:55:24;;;;;;;0.00;0.00;;;;;;;17.26;72.52;101592.66;5133937;27;20436;-81
2023/07/20 01:57:50;;;;;;;0.00;0.00;;;;;;;17.27;72.07;101593.53;5130138;27;20039;-82
2023/07/20 02:00:19;;;;;;;0.10;0.10;;;;;;;17.25;72.17;101595.41;5128680;27;20023;-82
2023/07/20 02:02:45;;;;;;;0.05;0.05;;;;;;;17.21;72.70;101599.09;5132004;27;20054;-82
2023/07/20 02:05:11;;;;;;;0.10;0.10;;;;;;;17.21;71.91;101599.09;5130780;27;20441;-81
2023/07/20 02:07:37;;;;;;;0.10;0.10;;;;;;;17.19;71.99;101603.66;5129074;27;20259;-82
2023/07/20 02:10:03;;;;;;;0.00;0.00;;;;;;;17.17;72.34;101594.81;5134237;27;20071;-82
2023/07/20 02:12:29;;;;;;;0.10;0.10;;;;;;;17.18;72.25;101596.56;5149927;27;20088;-83
2023/07/20 02:14:55;;;;;;;0.10;0.10;;;;;;;17.16;72.41;101590.38;5136539;27;20092;-84
2023/07/20 02:17:22;;;;;;;0.10;0.10;;;;;;;17.13;72.50;101597.59;5133579;27;20035;-83
2023/07/20 02:19:52;;;;;;;0.10;0.10;;;;;;;17.17;72.47;101597.47;5131937;27;20065;-83
2023/07/20 02:22:18;;;;;;;0.10;0.10;;;;;;;17.12;72.53;101595.84;5133906;27;20051;-83
2023/07/20 02:24:44;;;;;;;0.10;0.10;;;;;;;17.11;72.17;101604.81;5132541;27;20092;-83
2023/07/20 02:27:15;;;;;;;0.00;0.00;;;;;;;17.11;72.25;101602.13;5134102;27;20024;-84
2023/07/20 02:29:41;;;;;;;0.10;0.10;;;;;;;17.11;72.16;101599.44;5139291;27;20023;-83
2023/07/20 02:32:09;;;;;;;0.00;0.00;;;;;;;17.11;72.26;101599.44;5133880;27;20027;-84
2023/07/20 02:34:36;;;;;;;0.00;0.00;;;;;;;17.11;72.23;101599.44;5132624;27;20031;-83
2023/07/20 02:37:02;;;;;;;0.10;0.10;;;;;;;17.10;72.28;101596.84;5133502;27;20532;-82
2023/07/20 02:39:28;;;;;;;0.10;0.10;;;;;;;17.10;72.26;101597.69;5132483;27;20031;-83
2023/07/20 02:41:55;;;;;;;0.10;0.10;;;;;;;17.09;72.25;101601.28;5129986;27;20019;-83
2023/07/20 02:44:21;;;;;;;0.05;0.05;;;;;;;17.08;72.02;101599.53;5122507;28;20035;-82
2023/07/20 02:46:49;;;;;;;0.00;0.00;;;;;;;17.07;71.94;101597.81;5122735;28;20385;-83
2023/07/20 02:49:15;;;;;;;0.10;0.10;;;;;;;17.05;72.24;101601.47;5123061;27;20051;-82
2023/07/20 02:51:42;;;;;;;0.10;0.10;;;;;;;17.03;72.07;101593.47;5122460;27;20066;-81
2023/07/20 02:54:08;;;;;;;0.10;0.10;;;;;;;17.02;72.03;101607.78;5122048;28;20035;-82
2023/07/20 02:56:35;;;;;;;0.10;0.10;;;;;;;17.01;71.88;101611.41;5121223;28;20030;-82
2023/07/20 02:59:03;;;;;;;0.00;0.00;;;;;;;16.99;72.02;101605.22;5129832;27;20042;-81
2023/07/20 03:01:29;;;;;;;0.10;0.10;;;;;;;16.98;72.16;101614.19;5131742;28;20081;-80
2023/07/20 03:03:55;;;;;;;0.10;0.10;;;;;;;16.95;71.96;101615.16;5130759;27;20039;-81
2023/07/20 03:06:22;;;;;;;0.10;0.10;;;;;;;16.94;72.22;101618.75;5124161;27;20114;-82
2023/07/20 03:08:51;;;;;;;0.00;0.00;;;;;;;16.92;72.23;101622.44;5112586;28;20027;-83
2023/07/20 03:11:19;;;;;;;0.10;0.10;;;;;;;16.91;71.85;101623.31;5110918;28;20039;-83
2023/07/20 03:13:46;;;;;;;0.00;0.00;;;;;;;16.90;72.05;101621.59;5113281;28;20047;-82
2023/07/20 03:16:17;;;;;;;0.10;0.10;;;;;;;16.90;71.89;101626.94;5112211;28;20080;-81
2023/07/20 03:18:43;;;;;;;0.10;0.10;;;;;;;16.89;72.13;101626.06;5111471;28;20142;-81
2023/07/20 03:21:12;;;;;;;0.00;0.00;;;;;;;16.88;71.86;101634.13;5109351;28;20118;-82
2023/07/20 03:23:40;;;;;;;0.10;0.10;;;;;;;16.88;71.60;101639.50;5114245;28;20327;-81
2023/07/20 03:26:08;;;;;;;0.00;0.00;;;;;;;16.81;72.26;101630.81;5111892;28;20118;-81
2023/07/20 03:28:35;;;;;;;0.10;0.10;;;;;;;16.78;71.53;101634.44;5115271;28;20027;-83
2023/07/20 03:31:01;;;;;;;0.10;0.10;;;;;;;16.75;71.76;101633.69;5111207;28;20024;-83
2023/07/20 03:33:29;;;;;;;0.00;0.00;;;;;;;16.72;72.20;101634.63;5115172;28;20043;-82
2023/07/20 03:35:56;;;;;;;0.00;0.00;;;;;;;16.70;72.40;101636.50;5123196;27;20038;-82
2023/07/20 03:38:23;;;;;;;0.00;0.00;;;;;;;16.67;72.47;101628.56;5138947;27;20484;-83
2023/07/20 03:40:52;;;;;;;0.10;0.10;;;;;;;16.67;72.96;101639.25;5133653;27;20023;-83
2023/07/20 03:43:18;;;;;;;0.08;0.08;;;;;;;16.66;72.30;101640.22;5125794;27;20106;-83
2023/07/20 03:45:45;;;;;;;0.10;0.10;;;;;;;16.65;72.30;101638.47;5130038;27;20032;-83
2023/07/20 03:48:11;;;;;;;0.00;0.00;;;;;;;16.64;72.33;101639.38;5127678;27;20529;-83
2023/07/20 03:50:38;;;;;;;0.10;0.10;;;;;;;16.64;72.22;101640.25;5110420;22;20017;-82
2023/07/20 03:53:04;;;;;;;0.10;0.10;;;;;;;16.65;72.33;101649.16;5090555;28;20036;-81
2023/07/20 03:55:30;;;;;;;0.10;0.10;;;;;;;16.65;72.62;101641.13;5092479;28;20054;-82
2023/07/20 03:57:57;;;;;;;0.20;0.20;;;;;;;16.65;72.76;101639.31;5078410;28;20028;-81
2023/07/20 04:00:23;;;;;;;0.10;0.10;;;;;;;16.64;72.40;101636.72;5074207;28;20020;-82
2023/07/20 04:02:49;;;;;;;0.10;0.10;;;;;;;16.64;72.28;101644.72;5071267;28;20104;-83
2023/07/20 04:05:15;;;;;;;0.10;0.10;;;;;;;16.64;72.54;101637.56;5070003;28;20033;-83
2023/07/20 04:07:41;;;;;;;0.00;0.00;;;;;;;16.65;72.63;101633.13;5065838;28;20029;-82
2023/07/20 04:10:08;;;;;;;0.10;0.10;;;;;;;16.68;72.99;101637.47;5074313;28;20043;-82
2023/07/20 04:12:37;;;;;;;0.10;0.10;;;;;;;16.67;72.93;101631.25;5075798;28;20037;-82
2023/07/20 04:15:04;;;;;;;0.10;0.10;;;;;;;16.66;73.09;101630.38;5075875;28;20017;-82
2023/07/20 04:17:30;;;;;;;0.00;0.00;;;;;;;16.67;72.72;101641.94;5073396;28;20032;-82
2023/07/20 04:19:56;;;;;;;0.00;0.00;;;;;;;16.69;72.67;101645.44;5073148;28;20024;-83
2023/07/20 04:22:22;;;;;;;0.10;0.10;;;;;;;16.71;72.79;101642.72;5081261;28;20037;-82
2023/07/20 04:24:48;;;;;;;0.10;0.10;;;;;;;16.71;72.73;101643.63;5079311;28;20419;-83
2023/07/20 04:27:14;;;;;;;0.10;0.10;;;;;;;16.73;72.51;101639.06;5081717;28;20036;-82
2023/07/20 04:29:40;;;;;;;0.00;0.00;;;;;;;16.74;72.55;101648.84;5080791;28;20051;-82
2023/07/20 04:32:07;;;;;;;0.10;0.10;;;;;;;16.75;72.67;101655.97;5079353;28;20035;-84
2023/07/20 04:34:37;;;;;;;0.00;0.00;;;;;;;16.75;72.89;101665.81;5078089;28;20458;-83
2023/07/20 04:37:07;;;;;;;0.10;0.10;;;;;;;16.77;72.77;101661.25;5076646;28;20036;-83
2023/07/20 04:39:33;;;;;;;0.00;0.00;;;;;;;16.78;72.63;101661.19;5078182;28;20081;-83
2023/07/20 04:41:59;;;;;;;0.00;0.00;;;;;;;16.80;72.86;101658.50;5081060;28;20024;-83
2023/07/20 04:44:25;;;;;;;0.10;0.10;;;;;;;16.83;72.49;101663.72;5083850;28;20037;-83
2023/07/20 04:46:51;;;;;;;0.10;0.10;;;;;;;16.86;72.91;101668.09;5065803;28;20040;-83
2023/07/20 04:49:18;;;;;;;0.08;0.08;;;;;;;16.87;72.56;101657.34;5069117;28;20413;-82
2023/07/20 04:51:44;;;;;;;0.08;0.08;;;;;;;16.90;72.65;101659.94;5075896;28;20039;-83
2023/07/20 04:54:11;;;;;;;0.10;0.10;;;;;;;16.93;72.80;101669.69;5077752;28;20033;-82
2023/07/20 04:56:37;;;;;;;0.00;0.00;;;;;;;16.97;73.12;101657.94;5076574;28;20029;-84
2023/07/20 04:59:03;;;;;;;0.10;0.10;;;;;;;17.00;72.98;101657.84;5077294;28;20384;-83
2023/07/20 05:01:29;;;;;;;0.20;0.20;;;;;;;17.06;72.84;101659.44;5075051;28;20020;-82
2023/07/20 05:03:55;;;;;;;0.00;0.00;;;;;;;17.10;72.75;101661.97;5075158;28;20050;-82
2023/07/20 05:06:21;;;;;;;0.00;0.00;;;;;;;17.17;72.76;101661.75;5076453;28;20059;-83
2023/07/20 05:08:47;;;;;;;0.10;0.10;;;;;;;17.21;72.70;101656.25;5094129;28;20032;-83
2023/07/20 05:11:13;;;;;;;0.10;0.10;;;;;;;17.28;73.29;101663.13;5074414;28;20035;-83
2023/07/20 05:13:40;;;;;;;0.10;0.10;;;;;;;17.36;72.89;101659.28;5071309;28;20028;-83
2023/07/20 05:16:07;;;;;;;0.10;0.10;;;;;;;17.42;73.08;101651.94;5073120;28;20080;-83
2023/07/20 05:18:33;;;;;;;0.10;0.10;;;;;;;17.50;72.86;101654.31;5078100;28;20042;-84
2023/07/20 05:20:59;;;;;;;0.10;0.10;;;;;;;17.58;73.01;101662.06;5073593;28;20029;-83
2023/07/20 05:23:28;;;;;;;0.10;0.10;;;;;;;17.68;73.19;101668.84;5088976;28;20096;-83
2023/07/20 05:25:56;;;;;;;0.10;0.10;;;;;;;17.75;72.99;101661.47;5090599;28;20036;-82
2023/07/20 05:28:22;;;;;;;0.25;0.25;;;;;;;17.87;72.83;101662.78;5093596;28;20043;-82
2023/07/20 05:30:51;;;;;;;0.00;0.00;;;;;;;17.97;72.75;101666.03;5089551;28;20059;-82
2023/07/20 05:33:18;;;;;;;0.10;0.10;;;;;;;18.11;72.96;101666.41;5090389;28;20036;-82
2023/07/20 05:35:44;;;;;;;0.08;0.08;;;;;;;18.23;72.70;101667.72;5076952;28;20028;-82
2023/07/20 05:38:10;;;;;;;0.10;0.10;;;;;;;18.32;72.76;101671.84;5071988;28;20095;-83
2023/07/20 05:40:40;;;;;;;0.10;0.10;;;;;;;18.45;72.42;101670.44;5073177;28;20491;-83
2023/07/20 05:43:06;;;;;;;0.00;0.00;;;;;;;18.54;72.40;101663.81;5079027;28;20055;-83
2023/07/20 05:45:32;;;;;;;0.00;0.00;;;;;;;18.63;72.12;101663.47;5076372;28;20462;-83
2023/07/20 05:47:58;;;;;;;0.10;0.10;;;;;;;18.65;72.13;101664.25;5074402;28;20025;-83
2023/07/20 05:50:24;;;;;;;0.00;0.00;;;;;;;18.69;71.79;101665.00;5076294;28;20407;-83
2023/07/20 05:52:53;;;;;;;0.17;0.17;;;;;;;18.71;71.64;101664.00;5077405;28;20029;-82
2023/07/20 05:55:19;;;;;;;0.10;0.10;;;;;;;18.72;71.52;101662.22;5073851;28;20044;-82
2023/07/20 05:57:46;;;;;;;0.10;0.10;;;;;;;18.73;71.55;101669.34;5084178;28;20033;-82
2023/07/20 06:00:12;;;;;;;0.08;0.08;;;;;;;18.74;71.41;101665.69;5093752;28;20074;-83
2023/07/20 06:02:39;;;;;;;0.00;0.00;;;;;;;18.73;71.37;101658.59;5087614;28;20187;-83
2023/07/20 06:05:09;;;;;;;0.00;0.00;;;;;;;18.71;71.26;101660.47;5077858;28;20028;-83
2023/07/20 06:07:36;;;;;;;0.00;0.00;;;;;;;18.68;71.00;101658.78;5075769;28;20507;-83
2023/07/20 06:10:02;;;;;;;0.00;0.00;;;;;;;18.63;70.97;101658.09;5071586;28;20491;-84
2023/07/20 06:12:28;;;;;;;0.10;0.10;;;;;;;18.59;70.90;101661.81;5066620;28;20024;-84
2023/07/20 06:14:55;;;;;;;0.10;0.10;;;;;;;18.55;70.72;101665.56;5077428;28;20040;-84
2023/07/20 06:17:21;;;;;;;0.00;0.00;;;;;;;18.52;70.65;101665.72;5077694;28;20119;-82
2023/07/20 06:19:47;;;;;;;0.00;0.00;;;;;;;18.48;70.32;101669.44;5081347;28;20028;-82
2023/07/20 06:22:13;;;;;;;0.10;0.10;;;;;;;18.47;70.41;101673.03;5081349;28;20033;-84
2023/07/20 06:24:39;;;;;;;0.00;0.00;;;;;;;18.46;70.31;101676.69;5079871;28;20060;-84
2023/07/20 06:27:06;;;;;;;0.05;0.05;;;;;;;18.46;70.26;101671.31;5075180;28;20050;-82
2023/07/20 06:29:32;;;;;;;0.00;0.00;;;;;;;18.46;70.14;101682.06;5072463;28;20033;-83
2023/07/20 06:31:58;;;;;;;0.05;0.05;;;;;;;18.45;69.94;101681.16;5069643;28;20086;-82
2023/07/20 06:34:24;;;;;;;0.00;0.00;;;;;;;18.45;69.90;101675.78;5078608;28;20028;-83
2023/07/20 06:36:50;;;;;;;0.10;0.10;;;;;;;18.47;69.75;101684.66;5079781;28;20088;-83
2023/07/20 06:39:16;;;;;;;0.00;0.00;;;;;;;18.46;69.29;101687.41;5079684;28;20384;-82
2023/07/20 06:41:42;;;;;;;0.10;0.10;;;;;;;18.45;68.82;101680.31;5080355;28;20035;-82
2023/07/20 06:44:08;;;;;;;0.08;0.08;;;;;;;18.45;68.40;101685.66;5080362;28;20028;-82
2023/07/20 06:46:35;;;;;;;0.30;0.30;;;;;;;18.48;68.43;101696.25;5080437;28;20032;-84
2023/07/20 06:49:01;;;;;;;0.10;0.10;;;;;;;18.50;67.98;101692.59;5069162;28;20028;-84
2023/07/20 06:51:27;;;;;;;0.00;0.00;;;;;;;18.55;68.57;101697.78;5064213;28;20041;-83
2023/07/20 06:53:53;;;;;;;0.10;0.10;;;;;;;18.59;68.67;101694.03;5078162;28;20123;-83
2023/07/20 06:56:19;;;;;;;0.10;0.10;;;;;;;18.63;68.86;101697.47;5080238;28;20020;-83
2023/07/20 06:58:45;;;;;;;0.10;0.10;;;;;;;18.66;68.88;101695.53;5080769;28;20041;-84
2023/07/20 07:01:11;;;;;;;0.03;0.03;;;;;;;18.71;68.78;101696.22;5071952;28;20032;-84
2023/07/20 07:03:37;;;;;;;0.10;0.10;;;;;;;18.78;68.73;101698.66;5088593;28;20032;-83
2023/07/20 07:06:03;;;;;;;0.08;0.08;;;;;;;18.83;68.69;101693.97;5092698;28;20047;-82
2023/07/20 07:08:29;;;;;;;0.10;0.10;;;;;;;18.87;68.57;101691.09;5096775;28;20052;-82
2023/07/20 07:10:55;;;;;;;0.00;0.00;;;;;;;18.94;68.31;101696.25;5093729;28;20036;-82
2023/07/20 07:13:21;;;;;;;0.03;0.03;;;;;;;19.00;68.05;101698.69;5083602;28;20040;-80
2023/07/20 07:15:47;;;;;;;0.10;0.10;;;;;;;19.02;67.21;101697.66;5081625;28;20025;-82
2023/07/20 07:18:14;;;;;;;0.00;0.00;;;;;;;19.03;66.25;101691.38;5071713;28;20029;-83
2023/07/20 07:20:40;;;;;;;0.00;0.00;;;;;;;19.07;66.54;101692.97;5067099;28;20028;-82
2023/07/20 07:23:06;;;;;;;0.00;0.00;;;;;;;19.13;66.09;101696.34;5074635;28;20028;-84
2023/07/20 07:25:32;;;;;;;0.10;0.10;;;;;;;19.16;66.02;101696.22;5076487;28;20024;-83
2023/07/20 07:27:58;;;;;;;0.00;0.00;;;;;;;19.18;65.75;101697.03;5076066;28;20488;-83
2023/07/20 07:30:24;;;;;;;0.00;0.00;;;;;;;19.19;66.49;101696.06;5072364;28;20071;-83
2023/07/20 07:32:50;;;;;;;0.00;0.00;;;;;;;19.21;66.04;101702.25;5076784;28;20024;-83
2023/07/20 07:35:16;;;;;;;0.00;0.00;;;;;;;19.24;65.60;101696.78;5077948;28;20048;-83
2023/07/20 07:37:42;;;;;;;0.00;0.00;;;;;;;19.29;65.92;101700.13;5084709;28;20035;-83
2023/07/20 07:40:09;;;;;;;0.10;0.10;;;;;;;19.35;66.19;101704.34;5077040;28;20028;-83
2023/07/20 07:42:38;;;;;;;0.00;0.00;;;;;;;19.44;66.48;101703.97;5077136;28;20128;-83
2023/07/20 07:45:04;;;;;;;0.10;0.10;;;;;;;19.47;65.78;101700.28;5073081;28;20286;-84
2023/07/20 07:47:30;;;;;;;0.00;0.00;;;;;;;19.54;65.48;101693.69;5072203;28;20025;-84
2023/07/20 07:49:57;;;;;;;0.10;0.10;;;;;;;19.56;62.93;101694.47;5084515;28;20046;-82
2023/07/20 07:52:23;;;;;;;0.03;0.03;;;;;;;19.66;64.35;101697.63;5081653;28;20071;-83
2023/07/20 07:54:49;;;;;;;0.00;0.00;;;;;;;19.67;63.77;101692.19;5087839;28;20081;-83
2023/07/20 07:57:15;;;;;;;0.00;0.00;;;;;;;19.75;64.25;101696.34;5065997;28;20067;-83
2023/07/20 07:59:41;;;;;;;0.10;0.10;;;;;;;19.80;64.54;101699.69;5071384;28;20028;-83
2023/07/20 08:02:07;;;;;;;0.10;0.10;;;;;;;19.85;63.73;101697.69;5068100;28;20021;-83
2023/07/20 08:04:33;;;;;;;0.00;0.00;;;;;;;19.88;63.74;101697.56;5076582;28;20491;-82
2023/07/20 08:07:00;;;;;;;0.10;0.10;;;;;;;19.94;63.40;101702.69;5075771;28;20130;-84
2023/07/20 08:09:26;;;;;;;0.05;0.05;;;;;;;19.97;63.54;101697.16;5068234;28;20119;-84
2023/07/20 08:11:52;;;;;;;0.00;0.00;;;;;;;20.01;62.90;101698.78;5078461;28;20032;-83
2023/07/20 08:14:19;;;;;;;0.10;0.10;;;;;;;20.06;63.56;101705.75;5069269;28;20024;-83
2023/07/20 08:16:45;;;;;;;0.10;0.10;;;;;;;20.05;62.90;101704.88;5076727;28;20040;-82
2023/07/20 08:19:11;;;;;;;0.10;0.10;;;;;;;20.01;62.05;101701.47;5076989;28;20017;-82
2023/07/20 08:21:37;;;;;;;0.10;0.10;;;;;;;20.05;63.12;101704.88;5076063;28;20082;-82
2023/07/20 08:24:04;;;;;;;0.10;0.10;;;;;;;20.12;62.54;101700.06;5076934;28;20052;-83
2023/07/20 08:26:30;;;;;;;0.00;0.00;;;;;;;20.23;61.86;101713.91;5076729;28;20073;-83
2023/07/20 08:28:56;;;;;;;0.10;0.10;;;;;;;20.34;60.92;101705.31;5076022;28;20027;-83
2023/07/20 08:31:22;;;;;;;0.00;0.00;;;;;;;20.51;61.49;101708.09;5077014;28;20064;-83
2023/07/20 08:33:48;;;;;;;0.10;0.10;;;;;;;20.67;60.71;101710.91;5077247;28;20076;-83
2023/07/20 08:36:14;;;;;;;0.10;0.10;;;;;;;20.86;61.19;101712.72;5078744;28;20043;-82
2023/07/20 08:38:40;;;;;;;0.10;0.10;;;;;;;20.96;55.31;101703.22;5094899;28;20008;-82
2023/07/20 08:41:07;;;;;;;0.10;0.10;;;;;;;21.19;59.78;101693.09;5093229;28;20047;-84
2023/07/20 08:43:35;;;;;;;0.13;0.13;;;;;;;21.39;60.45;101702.84;5088235;28;20041;-82
2023/07/20 08:46:03;;;;;;;0.10;0.10;;;;;;;21.56;58.95;101698.41;5084301;28;20028;-81
2023/07/20 08:48:31;;;;;;;0.08;0.08;;;;;;;21.80;60.90;101694.41;5082012;28;20680;-82
2023/07/20 08:51:00;;;;;;;0.10;0.10;;;;;;;21.99;59.75;101688.03;5072754;28;20029;-82
2023/07/20 08:53:27;;;;;;;0.10;0.10;;;;;;;22.04;58.07;101699.44;5072377;28;20411;-84
2023/07/20 08:55:53;;;;;;;0.10;0.10;;;;;;;22.02;57.97;101697.78;5071932;28;20024;-83
2023/07/20 08:58:20;;;;;;;0.00;0.00;;;;;;;22.00;57.99;101697.88;5079865;28;20032;-83
2023/07/20 09:00:51;;;;;;;0.00;0.00;;;;;;;21.95;57.55;101698.09;5071435;28;20398;-84
2023/07/20 09:03:18;;;;;;;0.10;0.10;;;;;;;21.95;57.44;101698.09;5069396;28;20387;-83
2023/07/20 09:05:45;;;;;;;1.77;1.65;;;;;;;22.00;58.45;101702.41;5068230;28;20028;-84
2023/07/20 09:08:11;;;;;;;0.10;0.10;;;;;;;22.02;59.15;101703.16;5069232;28;20064;-83
2023/07/20 09:10:37;;;;;;;0.10;0.10;;;;;;;22.00;58.06;101697.00;5085594;28;20017;-84
2023/07/20 09:13:03;;;;;;;0.10;0.10;;;;;;;22.02;56.22;101697.78;5087455;28;20047;-84
2023/07/20 09:15:30;;;;;;;0.00;0.00;;;;;;;22.07;57.44;101695.69;5093169;28;20037;-83
2023/07/20 09:17:56;;;;;;;0.00;0.00;;;;;;;22.13;57.88;101700.75;5073758;28;20017;-83
2023/07/20 09:20:22;;;;;;;0.00;0.00;;;;;;;22.17;58.14;101696.94;5080453;28;20496;-83
2023/07/20 09:22:49;;;;;;;0.10;0.10;;;;;;;22.23;57.10;101696.59;5064477;28;20057;-83
2023/07/20 09:25:19;;;;;;;0.00;0.00;;;;;;;22.39;56.20;101695.75;5060659;28;20021;-81
2023/07/20 09:27:47;;;;;;;0.08;0.08;;;;;;;22.50;55.01;101687.91;5062629;28;20028;-83
2023/07/20 09:30:16;;;;;;;0.03;0.03;;;;;;;22.66;55.77;101690.63;5075481;28;20048;-84
2023/07/20 09:35:21;;;;;;;0.10;0.10;;;;;;;23.04;54.51;101681.22;5156551;27;20361;-82
2023/07/20 09:37:52;;;;;;;0.10;0.10;;;;;;;23.02;51.11;101678.63;5154682;27;20501;-81
2023/07/20 09:40:19;;;;;;;0.10;0.10;;;;;;;23.08;53.51;101672.00;5157803;27;20028;-80
2023/07/20 09:42:45;;;;;;;0.10;0.10;;;;;;;23.10;51.50;101679.03;5136436;27;20024;-81
2023/07/20 09:45:12;;;;;;;0.10;0.10;;;;;;;23.11;52.70;101677.19;5135303;27;20048;-82
2023/07/20 09:47:38;;;;;;;0.10;0.10;;;;;;;23.05;51.81;101681.16;5136391;27;20038;-83
2023/07/20 09:50:10;;;;;;;0.20;0.20;;;;;;;23.07;54.27;101681.06;5130536;27;20028;-84
2023/07/20 09:52:39;;;;;;;;;;;;;;;23.11;50.75;101674.50;5131856;27;20034;-82
2023/07/20 09:55:07;;;;;;;0.00;0.00;;;;;;;23.12;54.26;101672.69;5136584;27;20026;-83
2023/07/20 09:57:35;;;;;;;0.10;0.10;;;;;;;23.26;52.09;101670.91;5136068;27;20112;-82
2023/07/20 10:00:11;;;;;;;0.00;0.00;;;;;;;23.44;51.45;101676.16;5130685;27;20031;-82
2023/07/20 10:02:43;;;;;;;0.00;0.00;;;;;;;23.51;48.80;101669.38;5130532;27;20055;-82
2023/07/20 10:05:12;;;;;;;0.10;0.10;;;;;;;23.58;48.99;101670.75;5132189;28;20032;-81
2023/07/20 10:07:45;;;;;;;0.00;0.00;;;;;;;23.59;48.54;101672.50;5133506;27;20027;-82
2023/07/20 10:10:13;;;;;;;0.35;0.30;;;;;;;23.66;50.55;101672.97;5129600;27;20104;-81
2023/07/20 10:12:41;;;;;;;0.10;0.10;;;;;;;23.73;50.14;101673.47;5140841;27;20063;-81
2023/07/20 10:15:24;;;;;;;0.10;0.10;;;;;;;23.81;47.62;101665.72;5152593;27;20027;-81
2023/07/20 10:20:41;;;;;;;0.10;0.10;;;;;;;23.91;49.81;101671.44;5099827;28;20405;-80
2023/07/20 10:23:08;;;;;;;0.10;0.10;;;;;;;23.93;48.47;101668.69;5084257;28;20024;-79
2023/07/20 10:25:37;;;;;;;0.10;0.10;;;;;;;24.01;48.60;101669.94;5072886;28;20120;-80
2023/07/20 10:28:06;;;;;;;0.05;0.05;;;;;;;24.12;49.94;101673.78;5072853;28;20059;-81
2023/07/20 10:30:36;;;;;;;0.10;0.10;;;;;;;24.07;49.23;101668.66;5070733;28;20025;-81
2023/07/20 10:33:07;;;;;;;0.10;0.10;;;;;;;23.92;49.28;101666.94;5071244;28;20353;-81
2023/07/20 10:35:54;;;;;;;0.05;0.05;;;;;;;23.86;50.59;101663.63;5063662;28;20102;-83
2023/07/20 10:38:38;;;;;;;0.10;0.10;;;;;;;23.78;50.29;101667.78;5065503;28;20031;-78
2023/07/20 10:41:27;;;;;;;0.15;0.15;;;;;;;23.72;50.79;101671.72;5064797;28;20063;-81
2023/07/20 10:44:00;;;;;;;0.10;0.10;;;;;;;23.67;50.43;101666.59;5068628;28;20044;-81
2023/07/20 10:46:46;;;;;;;0.08;0.08;;;;;;;23.73;51.31;101662.66;5077148;28;20023;-79
2023/07/20 10:49:15;;;;;;;0.10;0.10;;;;;;;23.68;50.94;101662.94;5078777;28;20017;-80
2023/07/20 10:51:43;;;;;;;0.10;0.10;;;;;;;23.69;51.08;101659.28;5069638;28;20045;-82
2023/07/20 10:56:56;;;;;;;0.08;0.08;;;;;;;23.56;50.37;101661.88;5114731;27;20414;-81
2023/07/20 11:02:01;;;;;;;0.10;0.10;;;;;;;23.47;51.20;101661.56;5082307;27;2204851;-81
2023/07/20 11:04:44;;;;;;;0.10;0.10;;;;;;;23.55;50.31;101649.31;5133208;27;20446;-81
2023/07/20 11:07:10;;;;;;;0.10;0.10;;;;;;;23.55;52.63;101652.03;5135950;27;20031;-81
2023/07/20 11:09:37;;;;;;;0.10;0.10;;;;;;;23.62;51.98;101648.94;5127615;27;20492;-81
2023/07/20 11:12:19;;;;;;;0.10;0.10;;;;;;;23.85;50.05;101651.06;5128754;27;20034;-81
2023/07/20 11:15:00;;;;;;;0.00;0.00;;;;;;;23.96;51.31;101641.41;5127450;27;20496;-81
2023/07/20 11:17:31;;;;;;;0.00;0.00;;;;;;;24.02;50.98;101638.31;5131422;27;20027;-81
2023/07/20 11:20:02;;;;;;;0.10;0.10;;;;;;;24.16;50.26;101637.41;5125366;27;20032;-80
2023/07/20 11:22:30;;;;;;;0.10;0.10;;;;;;;24.32;50.04;101640.00;5128630;27;20103;-80
2023/07/20 11:24:57;;;;;;;0.20;0.20;;;;;;;24.42;50.11;101632.97;5128137;27;20020;-82
2023/07/20 11:27:24;;;;;;;0.08;0.08;;;;;;;24.54;47.73;101637.59;5140473;27;20023;-81
2023/07/20 11:29:50;;;;;;;0.10;0.10;;;;;;;24.60;48.71;101635.44;5156291;27;20020;-83
2023/07/20 11:32:24;;;;;;;0.00;0.00;;;;;;;24.54;46.84;101637.59;5153962;27;20027;-81
2023/07/20 11:34:51;;;;;;;0.00;0.00;;;;;;;24.51;48.71;101632.41;5130110;27;20048;-80
2023/07/20 11:37:18;;;;;;;0.10;0.10;;;;;;;24.41;46.71;101633.94;5134408;27;20072;-80
2023/07/20 11:39:44;;;;;;;0.03;0.03;;;;;;;24.33;46.20;101633.59;5126873;27;20098;-80
2023/07/20 11:42:11;;;;;;;0.25;0.25;;;;;;;24.31;47.53;101630.13;5129274;27;20076;-81
2023/07/20 11:44:37;;;;;;;0.00;0.00;;;;;;;24.34;48.00;101625.38;5124541;27;20549;-81
2023/07/20 11:47:12;;;;;;;0.00;0.00;;;;;;;24.42;44.90;101619.44;5125538;27;20037;-81
2023/07/20 11:49:41;;;;;;;0.20;0.20;;;;;;;24.46;46.53;101623.72;5131228;27;20031;-83